sensor_id;sensor_type;location;lat;lon;timestamp;temperature;humidity
10304;DHT22;5197;48.152;8.590;2023-10-08T00:01:04;11.50;1.00
10304;DHT22;5197;48.152;8.590;2023-10-08T00:03:33;11.50;1.00
10304;DHT22;5197;48.152;8.590;2023-10-08T00:06:03;11.50;1.00
10304;DHT22;5197;48.152;8.590;2023-10-08T00:08:33;11.50;1.00
10304;DHT22;5197;48.152;8.590;2023-10-08T00:11:00;12.90;1.00
10304;DHT22;5197;48.152;8.590;2023-10-08T00:13:34;11.50;1.00
10304;DHT22;5197;48.152;8.590;2023-10-08T00:16:08;11.60;1.00
10304;DHT22;5197;48.152;8.590;2023-10-08T00:18:38;11.60;1.00
10304;DHT22;5197;48.152;8.590;2023-10-08T00:21:09;11.60;1.00
10304;DHT22;5197;48.152;8.590;2023-10-08T00:23:39;12.60;1.00
10304;DHT22;5197;48.152;8.590;2023-10-08T00:26:10;11.50;1.00
10304;DHT22;5197;48.152;8.590;2023-10-08T00:28:37;11.40;1.00
10304;DHT22;5197;48.152;8.590;2023-10-08T00:31:05;11.30;1.00
10304;DHT22;5197;48.152;8.590;2023-10-08T00:33:39;11.30;1.00
10304;DHT22;5197;48.152;8.590;2023-10-08T00:36:06;12.60;1.00
10304;DHT22;5197;48.152;8.590;2023-10-08T00:38:47;11.40;1.00
10304;DHT22;5197;48.152;8.590;2023-10-08T00:41:17;12.40;1.00
10304;DHT22;5197;48.152;8.590;2023-10-08T00:43:49;11.40;1.00
10304;DHT22;5197;48.152;8.590;2023-10-08T00:46:18;11.40;1.00
10304;DHT22;5197;48.152;8.590;2023-10-08T00:48:56;11.40;1.00
10304;DHT22;5197;48.152;8.590;2023-10-08T00:51:24;11.40;1.00
10304;DHT22;5197;48.152;8.590;2023-10-08T00:54:03;11.40;1.00
10304;DHT22;5197;48.152;8.590;2023-10-08T00:56:37;11.40;1.00
10304;DHT22;5197;48.152;8.590;2023-10-08T00:59:16;11.40;1.00
10304;DHT22;5197;48.152;8.590;2023-10-08T01:01:44;11.30;1.00
10304;DHT22;5197;48.152;8.590;2023-10-08T01:04:26;11.10;1.00
10304;DHT22;5197;48.152;8.590;2023-10-08T01:06:57;11.20;1.00
10304;DHT22;5197;48.152;8.590;2023-10-08T01:09:28;11.10;1.00
10304;DHT22;5197;48.152;8.590;2023-10-08T01:14:50;11.10;1.00
10304;DHT22;5197;48.152;8.590;2023-10-08T01:17:24;11.10;1.00
10304;DHT22;5197;48.152;8.590;2023-10-08T01:19:53;11.00;1.00
10304;DHT22;5197;48.152;8.590;2023-10-08T01:23:37;11.00;1.00
10304;DHT22;5197;48.152;8.590;2023-10-08T01:26:05;10.80;1.00
10304;DHT22;5197;48.152;8.590;2023-10-08T01:28:39;11.00;1.00
10304;DHT22;5197;48.152;8.590;2023-10-08T01:31:06;12.70;1.00
10304;DHT22;5197;48.152;8.590;2023-10-08T01:33:34;11.00;1.00
10304;DHT22;5197;48.152;8.590;2023-10-08T01:36:05;11.10;1.00
10304;DHT22;5197;48.152;8.590;2023-10-08T01:38:34;11.00;1.00
10304;DHT22;5197;48.152;8.590;2023-10-08T01:41:01;11.00;1.00
10304;DHT22;5197;48.152;8.590;2023-10-08T01:43:45;10.90;1.00
10304;DHT22;5197;48.152;8.590;2023-10-08T01:46:12;10.90;1.00
10304;DHT22;5197;48.152;8.590;2023-10-08T01:48:40;10.80;1.00
10304;DHT22;5197;48.152;8.590;2023-10-08T01:51:08;10.80;1.00
10304;DHT22;5197;48.152;8.590;2023-10-08T01:53:38;10.80;1.00
10304;DHT22;5197;48.152;8.590;2023-10-08T01:56:06;11.80;1.00
10304;DHT22;5197;48.152;8.590;2023-10-08T01:58:33;10.80;1.00
10304;DHT22;5197;48.152;8.590;2023-10-08T02:01:02;10.80;1.00
10304;DHT22;5197;48.152;8.590;2023-10-08T02:03:32;11.90;1.00
10304;DHT22;5197;48.152;8.590;2023-10-08T02:05:59;10.90;1.00
10304;DHT22;5197;48.152;8.590;2023-10-08T02:08:26;10.90;1.00
10304;DHT22;5197;48.152;8.590;2023-10-08T02:10:54;10.90;1.00
10304;DHT22;5197;48.152;8.590;2023-10-08T02:13:21;11.00;1.00
10304;DHT22;5197;48.152;8.590;2023-10-08T02:15:51;10.90;1.00
10304;DHT22;5197;48.152;8.590;2023-10-08T02:18:21;12.30;1.00
10304;DHT22;5197;48.152;8.590;2023-10-08T02:20:52;12.00;1.00
10304;DHT22;5197;48.152;8.590;2023-10-08T02:23:19;10.80;1.00
10304;DHT22;5197;48.152;8.590;2023-10-08T02:25:46;10.80;1.00
10304;DHT22;5197;48.152;8.590;2023-10-08T02:28:15;10.80;1.00
10304;DHT22;5197;48.152;8.590;2023-10-08T02:30:43;10.90;1.00
10304;DHT22;5197;48.152;8.590;2023-10-08T02:33:10;10.90;1.00
10304;DHT22;5197;48.152;8.590;2023-10-08T02:35:44;12.00;1.00
10304;DHT22;5197;48.152;8.590;2023-10-08T02:38:16;10.90;1.00
10304;DHT22;5197;48.152;8.590;2023-10-08T02:40:44;11.00;1.00
10304;DHT22;5197;48.152;8.590;2023-10-08T02:43:15;11.00;1.00
10304;DHT22;5197;48.152;8.590;2023-10-08T02:45:43;12.10;1.00
10304;DHT22;5197;48.152;8.590;2023-10-08T02:48:14;11.40;1.00
10304;DHT22;5197;48.152;8.590;2023-10-08T02:50:42;10.80;1.00
10304;DHT22;5197;48.152;8.590;2023-10-08T02:53:12;10.80;1.00
10304;DHT22;5197;48.152;8.590;2023-10-08T02:55:40;10.80;1.00
10304;DHT22;5197;48.152;8.590;2023-10-08T02:58:11;10.90;1.00
10304;DHT22;5197;48.152;8.590;2023-10-08T03:00:50;11.30;1.00
10304;DHT22;5197;48.152;8.590;2023-10-08T03:03:19;13.10;1.00
10304;DHT22;5197;48.152;8.590;2023-10-08T03:05:51;10.80;1.00
10304;DHT22;5197;48.152;8.590;2023-10-08T03:08:19;10.90;1.00
10304;DHT22;5197;48.152;8.590;2023-10-08T03:10:51;10.90;1.00
10304;DHT22;5197;48.152;8.590;2023-10-08T03:13:29;10.80;1.00
10304;DHT22;5197;48.152;8.590;2023-10-08T03:15:56;10.80;1.00
10304;DHT22;5197;48.152;8.590;2023-10-08T03:18:30;10.80;1.00
10304;DHT22;5197;48.152;8.590;2023-10-08T03:21:04;10.80;1.00
10304;DHT22;5197;48.152;8.590;2023-10-08T03:23:32;10.70;1.00
10304;DHT22;5197;48.152;8.590;2023-10-08T03:26:03;10.70;1.00
10304;DHT22;5197;48.152;8.590;2023-10-08T03:29:01;10.60;1.00
10304;DHT22;5197;48.152;8.590;2023-10-08T03:31:32;12.70;1.00
10304;DHT22;5197;48.152;8.590;2023-10-08T03:34:17;10.60;1.00
10304;DHT22;5197;48.152;8.590;2023-10-08T03:36:47;10.60;1.00
10304;DHT22;5197;48.152;8.590;2023-10-08T03:39:16;10.60;1.00
10304;DHT22;5197;48.152;8.590;2023-10-08T03:41:46;10.60;1.00
10304;DHT22;5197;48.152;8.590;2023-10-08T03:44:33;10.40;1.00
10304;DHT22;5197;48.152;8.590;2023-10-08T03:47:08;12.70;1.00
10304;DHT22;5197;48.152;8.590;2023-10-08T03:49:38;10.60;1.00
10304;DHT22;5197;48.152;8.590;2023-10-08T03:52:12;13.10;1.00
10304;DHT22;5197;48.152;8.590;2023-10-08T03:54:42;10.50;1.00
10304;DHT22;5197;48.152;8.590;2023-10-08T03:57:31;10.50;1.00
10304;DHT22;5197;48.152;8.590;2023-10-08T04:00:14;10.40;1.00
10304;DHT22;5197;48.152;8.590;2023-10-08T04:02:45;10.50;1.00
10304;DHT22;5197;48.152;8.590;2023-10-08T04:05:22;12.70;1.00
10304;DHT22;5197;48.152;8.590;2023-10-08T04:08:07;10.50;1.00
10304;DHT22;5197;48.152;8.590;2023-10-08T04:11:06;10.50;1.00
10304;DHT22;5197;48.152;8.590;2023-10-08T04:13:51;10.50;1.00
10304;DHT22;5197;48.152;8.590;2023-10-08T04:16:19;10.40;1.00
10304;DHT22;5197;48.152;8.590;2023-10-08T04:18:47;10.40;1.00
10304;DHT22;5197;48.152;8.590;2023-10-08T04:21:18;10.40;1.00
10304;DHT22;5197;48.152;8.590;2023-10-08T04:23:48;10.20;1.00
10304;DHT22;5197;48.152;8.590;2023-10-08T04:26:19;10.30;1.00
10304;DHT22;5197;48.152;8.590;2023-10-08T04:28:54;10.20;1.00
10304;DHT22;5197;48.152;8.590;2023-10-08T04:31:24;11.40;1.00
10304;DHT22;5197;48.152;8.590;2023-10-08T04:33:55;11.10;1.00
10304;DHT22;5197;48.152;8.590;2023-10-08T04:36:27;10.30;1.00
10304;DHT22;5197;48.152;8.590;2023-10-08T04:38:54;10.20;1.00
10304;DHT22;5197;48.152;8.590;2023-10-08T04:41:29;12.10;1.00
10304;DHT22;5197;48.152;8.590;2023-10-08T04:43:56;10.60;1.00
10304;DHT22;5197;48.152;8.590;2023-10-08T04:46:23;10.20;1.00
10304;DHT22;5197;48.152;8.590;2023-10-08T04:49:05;10.20;1.00
10304;DHT22;5197;48.152;8.590;2023-10-08T04:51:34;10.60;1.00
10304;DHT22;5197;48.152;8.590;2023-10-08T04:54:13;10.10;1.00
10304;DHT22;5197;48.152;8.590;2023-10-08T04:56:49;10.00;1.00
10304;DHT22;5197;48.152;8.590;2023-10-08T04:59:16;10.10;1.00
10304;DHT22;5197;48.152;8.590;2023-10-08T05:01:49;10.70;1.00
10304;DHT22;5197;48.152;8.590;2023-10-08T05:04:36;9.90;1.00
10304;DHT22;5197;48.152;8.590;2023-10-08T05:07:23;10.00;1.00
10304;DHT22;5197;48.152;8.590;2023-10-08T05:09:53;10.00;1.00
10304;DHT22;5197;48.152;8.590;2023-10-08T05:12:35;10.00;1.00
10304;DHT22;5197;48.152;8.590;2023-10-08T05:15:17;12.50;1.00
10304;DHT22;5197;48.152;8.590;2023-10-08T05:17:48;10.10;1.00
10304;DHT22;5197;48.152;8.590;2023-10-08T05:20:19;10.10;1.00
10304;DHT22;5197;48.152;8.590;2023-10-08T05:23:11;10.10;1.00
10304;DHT22;5197;48.152;8.590;2023-10-08T05:26:07;10.40;1.00
10304;DHT22;5197;48.152;8.590;2023-10-08T05:28:36;10.00;1.00
10304;DHT22;5197;48.152;8.590;2023-10-08T05:31:14;9.90;1.00
10304;DHT22;5197;48.152;8.590;2023-10-08T05:33:42;10.10;1.00
10304;DHT22;5197;48.152;8.590;2023-10-08T05:36:27;9.90;1.00
10304;DHT22;5197;48.152;8.590;2023-10-08T05:39:03;10.10;1.00
10304;DHT22;5197;48.152;8.590;2023-10-08T05:41:48;11.20;1.00
10304;DHT22;5197;48.152;8.590;2023-10-08T05:44:19;10.20;1.00
10304;DHT22;5197;48.152;8.590;2023-10-08T05:46:46;10.20;1.00
10304;DHT22;5197;48.152;8.590;2023-10-08T05:49:16;10.30;1.00
10304;DHT22;5197;48.152;8.590;2023-10-08T05:51:53;10.20;1.00
10304;DHT22;5197;48.152;8.590;2023-10-08T05:54:21;10.20;1.00
10304;DHT22;5197;48.152;8.590;2023-10-08T05:56:58;10.20;1.00
10304;DHT22;5197;48.152;8.590;2023-10-08T05:59:54;10.20;1.00
10304;DHT22;5197;48.152;8.590;2023-10-08T06:02:29;10.20;1.00
10304;DHT22;5197;48.152;8.590;2023-10-08T06:05:05;10.10;1.00
10304;DHT22;5197;48.152;8.590;2023-10-08T06:07:47;10.20;1.00
10304;DHT22;5197;48.152;8.590;2023-10-08T06:10:29;10.20;1.00
10304;DHT22;5197;48.152;8.590;2023-10-08T06:13:09;10.30;1.00
10304;DHT22;5197;48.152;8.590;2023-10-08T06:18:12;10.30;1.00
10304;DHT22;5197;48.152;8.590;2023-10-08T06:20:42;10.50;1.00
10304;DHT22;5197;48.152;8.590;2023-10-08T06:23:14;10.50;1.00
10304;DHT22;5197;48.152;8.590;2023-10-08T06:25:46;10.50;1.00
10304;DHT22;5197;48.152;8.590;2023-10-08T06:28:14;10.50;1.00
10304;DHT22;5197;48.152;8.590;2023-10-08T06:30:43;10.50;1.00
10304;DHT22;5197;48.152;8.590;2023-10-08T06:33:13;10.60;1.00
10304;DHT22;5197;48.152;8.590;2023-10-08T06:35:41;10.80;1.00
10304;DHT22;5197;48.152;8.590;2023-10-08T06:38:11;10.90;1.00
10304;DHT22;5197;48.152;8.590;2023-10-08T06:40:42;11.10;1.00
10304;DHT22;5197;48.152;8.590;2023-10-08T06:43:10;11.10;1.00
10304;DHT22;5197;48.152;8.590;2023-10-08T06:45:42;11.40;1.00
10304;DHT22;5197;48.152;8.590;2023-10-08T06:48:10;11.50;1.00
10304;DHT22;5197;48.152;8.590;2023-10-08T06:50:55;11.50;1.00
10304;DHT22;5197;48.152;8.590;2023-10-08T06:53:33;11.70;1.00
10304;DHT22;5197;48.152;8.590;2023-10-08T06:58:32;12.10;1.00
10304;DHT22;5197;48.152;8.590;2023-10-08T07:01:03;12.10;1.00
10304;DHT22;5197;48.152;8.590;2023-10-08T07:03:36;12.70;1.00
10304;DHT22;5197;48.152;8.590;2023-10-08T07:06:05;15.60;1.00
10304;DHT22;5197;48.152;8.590;2023-10-08T07:08:52;12.60;1.00
10304;DHT22;5197;48.152;8.590;2023-10-08T07:11:23;14.50;1.00
10304;DHT22;5197;48.152;8.590;2023-10-08T07:13:50;14.00;1.00
10304;DHT22;5197;48.152;8.590;2023-10-08T07:16:18;15.10;1.00
10304;DHT22;5197;48.152;8.590;2023-10-08T07:18:45;16.40;1.00
10304;DHT22;5197;48.152;8.590;2023-10-08T07:21:19;16.20;1.00
10304;DHT22;5197;48.152;8.590;2023-10-08T07:23:50;17.00;1.00
10304;DHT22;5197;48.152;8.590;2023-10-08T07:26:27;16.60;1.00
10304;DHT22;5197;48.152;8.590;2023-10-08T07:29:06;18.10;1.00
10304;DHT22;5197;48.152;8.590;2023-10-08T07:31:37;18.10;1.00
10304;DHT22;5197;48.152;8.590;2023-10-08T07:34:08;18.30;1.00
10304;DHT22;5197;48.152;8.590;2023-10-08T07:36:50;18.10;1.00
10304;DHT22;5197;48.152;8.590;2023-10-08T07:39:20;18.60;1.00
10304;DHT22;5197;48.152;8.590;2023-10-08T07:41:53;19.50;1.00
10304;DHT22;5197;48.152;8.590;2023-10-08T07:44:24;19.90;1.00
10304;DHT22;5197;48.152;8.590;2023-10-08T07:46:53;19.60;1.00
10304;DHT22;5197;48.152;8.590;2023-10-08T07:49:22;19.60;1.00
10304;DHT22;5197;48.152;8.590;2023-10-08T07:51:58;19.50;1.00
10304;DHT22;5197;48.152;8.590;2023-10-08T07:54:26;19.50;1.00
10304;DHT22;5197;48.152;8.590;2023-10-08T07:56:56;19.10;1.00
10304;DHT22;5197;48.152;8.590;2023-10-08T07:59:40;19.00;1.00
10304;DHT22;5197;48.152;8.590;2023-10-08T08:02:18;19.20;1.00
10304;DHT22;5197;48.152;8.590;2023-10-08T08:04:50;20.10;1.00
10304;DHT22;5197;48.152;8.590;2023-10-08T08:07:19;19.30;1.00
10304;DHT22;5197;48.152;8.590;2023-10-08T08:09:51;19.50;1.00
10304;DHT22;5197;48.152;8.590;2023-10-08T08:12:22;19.30;1.00
10304;DHT22;5197;48.152;8.590;2023-10-08T08:14:52;19.60;1.00
10304;DHT22;5197;48.152;8.590;2023-10-08T08:17:21;19.80;1.00
10304;DHT22;5197;48.152;8.590;2023-10-08T08:19:52;19.90;1.00
10304;DHT22;5197;48.152;8.590;2023-10-08T08:22:21;20.20;1.00
10304;DHT22;5197;48.152;8.590;2023-10-08T08:24:52;20.30;1.00
10304;DHT22;5197;48.152;8.590;2023-10-08T08:27:30;20.50;1.00
10304;DHT22;5197;48.152;8.590;2023-10-08T08:30:00;21.30;1.00
10304;DHT22;5197;48.152;8.590;2023-10-08T08:32:38;21.30;1.00
10304;DHT22;5197;48.152;8.590;2023-10-08T08:35:07;21.50;1.00
10304;DHT22;5197;48.152;8.590;2023-10-08T08:37:34;21.20;1.00
10304;DHT22;5197;48.152;8.590;2023-10-08T08:40:03;21.20;1.00
10304;DHT22;5197;48.152;8.590;2023-10-08T08:42:45;21.10;1.00
10304;DHT22;5197;48.152;8.590;2023-10-08T08:45:20;20.80;1.00
10304;DHT22;5197;48.152;8.590;2023-10-08T08:47:48;21.50;1.00
10304;DHT22;5197;48.152;8.590;2023-10-08T08:50:16;20.70;1.00
10304;DHT22;5197;48.152;8.590;2023-10-08T08:52:44;20.60;1.00
10304;DHT22;5197;48.152;8.590;2023-10-08T08:55:12;19.60;1.00
10304;DHT22;5197;48.152;8.590;2023-10-08T08:57:48;20.60;1.00
10304;DHT22;5197;48.152;8.590;2023-10-08T09:00:17;20.60;1.00
10304;DHT22;5197;48.152;8.590;2023-10-08T09:02:46;21.70;1.00
10304;DHT22;5197;48.152;8.590;2023-10-08T09:05:15;20.70;1.00
10304;DHT22;5197;48.152;8.590;2023-10-08T09:07:58;20.80;1.00
10304;DHT22;5197;48.152;8.590;2023-10-08T09:10:26;20.90;1.00
10304;DHT22;5197;48.152;8.590;2023-10-08T09:12:57;20.90;1.00
10304;DHT22;5197;48.152;8.590;2023-10-08T09:15:28;20.90;1.00
10304;DHT22;5197;48.152;8.590;2023-10-08T09:17:56;20.90;1.00
10304;DHT22;5197;48.152;8.590;2023-10-08T09:20:24;21.00;1.00
10304;DHT22;5197;48.152;8.590;2023-10-08T09:23:12;20.90;1.00
10304;DHT22;5197;48.152;8.590;2023-10-08T09:25:41;20.90;1.00
10304;DHT22;5197;48.152;8.590;2023-10-08T09:28:08;20.90;1.00
10304;DHT22;5197;48.152;8.590;2023-10-08T09:30:36;20.80;1.00
10304;DHT22;5197;48.152;8.590;2023-10-08T09:33:09;20.90;1.00
10304;DHT22;5197;48.152;8.590;2023-10-08T09:35:37;20.80;1.00
10304;DHT22;5197;48.152;8.590;2023-10-08T09:38:05;20.90;1.00
10304;DHT22;5197;48.152;8.590;2023-10-08T09:40:42;21.10;1.00
10304;DHT22;5197;48.152;8.590;2023-10-08T09:43:11;21.20;1.00
10304;DHT22;5197;48.152;8.590;2023-10-08T09:45:44;21.40;1.00
10304;DHT22;5197;48.152;8.590;2023-10-08T09:48:16;21.20;1.00
10304;DHT22;5197;48.152;8.590;2023-10-08T09:50:47;21.20;1.00
10304;DHT22;5197;48.152;8.590;2023-10-08T09:53:14;21.30;1.00
10304;DHT22;5197;48.152;8.590;2023-10-08T09:55:54;21.40;1.00
10304;DHT22;5197;48.152;8.590;2023-10-08T09:58:26;21.50;1.00
10304;DHT22;5197;48.152;8.590;2023-10-08T10:00:55;21.50;1.00
10304;DHT22;5197;48.152;8.590;2023-10-08T10:03:25;21.60;1.00
10304;DHT22;5197;48.152;8.590;2023-10-08T10:05:54;21.80;1.00
10304;DHT22;5197;48.152;8.590;2023-10-08T10:08:26;21.70;1.00
10304;DHT22;5197;48.152;8.590;2023-10-08T10:10:59;21.70;1.00
10304;DHT22;5197;48.152;8.590;2023-10-08T10:13:28;21.70;1.00
10304;DHT22;5197;48.152;8.590;2023-10-08T10:15:58;21.70;1.00
10304;DHT22;5197;48.152;8.590;2023-10-08T10:18:27;21.70;1.00
10304;DHT22;5197;48.152;8.590;2023-10-08T10:21:00;21.70;1.00
10304;DHT22;5197;48.152;8.590;2023-10-08T10:23:48;21.80;1.00
10304;DHT22;5197;48.152;8.590;2023-10-08T10:26:29;21.90;1.00
10304;DHT22;5197;48.152;8.590;2023-10-08T10:31:44;22.00;1.00
10304;DHT22;5197;48.152;8.590;2023-10-08T10:34:15;22.10;1.00
10304;DHT22;5197;48.152;8.590;2023-10-08T10:36:46;22.20;1.00
10304;DHT22;5197;48.152;8.590;2023-10-08T10:39:19;22.40;1.00
10304;DHT22;5197;48.152;8.590;2023-10-08T10:42:00;22.50;1.00
10304;DHT22;5197;48.152;8.590;2023-10-08T10:44:34;22.40;1.00
10304;DHT22;5197;48.152;8.590;2023-10-08T10:47:04;22.40;1.00
10304;DHT22;5197;48.152;8.590;2023-10-08T10:49:54;22.30;1.00
10304;DHT22;5197;48.152;8.590;2023-10-08T10:52:33;22.30;1.00
10304;DHT22;5197;48.152;8.590;2023-10-08T10:55:19;22.50;1.00
10304;DHT22;5197;48.152;8.590;2023-10-08T10:57:58;22.40;1.00
10304;DHT22;5197;48.152;8.590;2023-10-08T11:00:42;22.50;1.00
10304;DHT22;5197;48.152;8.590;2023-10-08T11:03:09;22.60;1.00
10304;DHT22;5197;48.152;8.590;2023-10-08T11:05:50;22.60;1.00
10304;DHT22;5197;48.152;8.590;2023-10-08T11:08:19;22.70;1.00
10304;DHT22;5197;48.152;8.590;2023-10-08T11:10:51;22.90;1.00
10304;DHT22;5197;48.152;8.590;2023-10-08T11:13:24;22.90;1.00
10304;DHT22;5197;48.152;8.590;2023-10-08T11:16:23;23.10;1.00
10304;DHT22;5197;48.152;8.590;2023-10-08T11:18:50;23.00;1.00
10304;DHT22;5197;48.152;8.590;2023-10-08T11:21:19;23.00;1.00
10304;DHT22;5197;48.152;8.590;2023-10-08T11:23:52;23.00;1.00
10304;DHT22;5197;48.152;8.590;2023-10-08T11:26:22;23.10;1.00
10304;DHT22;5197;48.152;8.590;2023-10-08T11:29:00;23.10;1.00
10304;DHT22;5197;48.152;8.590;2023-10-08T11:31:28;23.40;1.00
10304;DHT22;5197;48.152;8.590;2023-10-08T11:34:00;23.30;1.00
10304;DHT22;5197;48.152;8.590;2023-10-08T11:36:28;23.40;1.00
10304;DHT22;5197;48.152;8.590;2023-10-08T11:39:11;23.40;1.00
10304;DHT22;5197;48.152;8.590;2023-10-08T11:41:40;23.40;1.00
10304;DHT22;5197;48.152;8.590;2023-10-08T11:44:33;23.50;1.00
10304;DHT22;5197;48.152;8.590;2023-10-08T11:47:04;23.60;1.00
10304;DHT22;5197;48.152;8.590;2023-10-08T11:49:39;23.60;1.00
10304;DHT22;5197;48.152;8.590;2023-10-08T11:52:15;23.70;1.00
10304;DHT22;5197;48.152;8.590;2023-10-08T11:54:43;23.70;1.00
10304;DHT22;5197;48.152;8.590;2023-10-08T11:57:10;23.70;1.00
10304;DHT22;5197;48.152;8.590;2023-10-08T11:59:38;23.70;1.00
10304;DHT22;5197;48.152;8.590;2023-10-08T12:02:06;23.70;1.00
10304;DHT22;5197;48.152;8.590;2023-10-08T12:04:33;23.70;1.00
10304;DHT22;5197;48.152;8.590;2023-10-08T12:07:00;23.70;1.00
10304;DHT22;5197;48.152;8.590;2023-10-08T12:09:33;23.70;1.00
10304;DHT22;5197;48.152;8.590;2023-10-08T12:12:05;23.70;1.00
10304;DHT22;5197;48.152;8.590;2023-10-08T12:14:36;23.70;1.00
10304;DHT22;5197;48.152;8.590;2023-10-08T12:17:04;23.70;1.00
10304;DHT22;5197;48.152;8.590;2023-10-08T12:19:38;23.80;1.00
10304;DHT22;5197;48.152;8.590;2023-10-08T12:22:10;23.90;1.00
10304;DHT22;5197;48.152;8.590;2023-10-08T12:24:42;23.70;1.00
10304;DHT22;5197;48.152;8.590;2023-10-08T12:27:09;23.80;1.00
10304;DHT22;5197;48.152;8.590;2023-10-08T12:29:39;23.90;1.00
10304;DHT22;5197;48.152;8.590;2023-10-08T12:32:06;24.10;1.00
10304;DHT22;5197;48.152;8.590;2023-10-08T12:34:44;23.90;1.00
10304;DHT22;5197;48.152;8.590;2023-10-08T12:37:11;23.90;1.00
10304;DHT22;5197;48.152;8.590;2023-10-08T12:39:41;23.90;1.00
10304;DHT22;5197;48.152;8.590;2023-10-08T12:42:26;23.90;1.00
10304;DHT22;5197;48.152;8.590;2023-10-08T12:44:53;23.80;1.00
10304;DHT22;5197;48.152;8.590;2023-10-08T12:47:24;23.80;1.00
10304;DHT22;5197;48.152;8.590;2023-10-08T12:49:56;24.00;1.00
10304;DHT22;5197;48.152;8.590;2023-10-08T12:52:24;24.00;1.00
10304;DHT22;5197;48.152;8.590;2023-10-08T12:54:54;24.10;1.00
10304;DHT22;5197;48.152;8.590;2023-10-08T12:57:22;24.20;1.00
10304;DHT22;5197;48.152;8.590;2023-10-08T12:59:59;24.10;1.00
10304;DHT22;5197;48.152;8.590;2023-10-08T13:02:27;24.30;1.00
10304;DHT22;5197;48.152;8.590;2023-10-08T13:04:57;24.20;1.00
10304;DHT22;5197;48.152;8.590;2023-10-08T13:07:26;24.30;1.00
10304;DHT22;5197;48.152;8.590;2023-10-08T13:09:53;24.20;1.00
10304;DHT22;5197;48.152;8.590;2023-10-08T13:12:20;24.10;1.00
10304;DHT22;5197;48.152;8.590;2023-10-08T13:14:48;24.10;1.00
10304;DHT22;5197;48.152;8.590;2023-10-08T13:17:15;24.20;1.00
10304;DHT22;5197;48.152;8.590;2023-10-08T13:19:42;24.20;1.00
10304;DHT22;5197;48.152;8.590;2023-10-08T13:22:09;24.30;1.00
10304;DHT22;5197;48.152;8.590;2023-10-08T13:24:36;24.40;1.00
10304;DHT22;5197;48.152;8.590;2023-10-08T13:27:03;24.50;1.00
10304;DHT22;5197;48.152;8.590;2023-10-08T13:29:33;24.40;1.00
10304;DHT22;5197;48.152;8.590;2023-10-08T13:32:01;24.50;1.00
10304;DHT22;5197;48.152;8.590;2023-10-08T13:34:31;24.50;1.00
10304;DHT22;5197;48.152;8.590;2023-10-08T13:36:58;24.50;1.00
10304;DHT22;5197;48.152;8.590;2023-10-08T13:39:25;24.60;1.00
10304;DHT22;5197;48.152;8.590;2023-10-08T13:41:54;24.70;1.00
10304;DHT22;5197;48.152;8.590;2023-10-08T13:44:23;24.60;1.00
10304;DHT22;5197;48.152;8.590;2023-10-08T13:46:59;24.70;1.00
10304;DHT22;5197;48.152;8.590;2023-10-08T13:49:27;24.70;1.00
10304;DHT22;5197;48.152;8.590;2023-10-08T13:51:56;24.80;1.00
10304;DHT22;5197;48.152;8.590;2023-10-08T13:54:24;24.80;1.00
10304;DHT22;5197;48.152;8.590;2023-10-08T13:59:29;24.80;1.00
10304;DHT22;5197;48.152;8.590;2023-10-08T14:02:04;24.80;1.00
10304;DHT22;5197;48.152;8.590;2023-10-08T14:04:45;24.90;1.00
10304;DHT22;5197;48.152;8.590;2023-10-08T14:07:13;24.70;1.00
10304;DHT22;5197;48.152;8.590;2023-10-08T14:09:44;24.70;1.00
10304;DHT22;5197;48.152;8.590;2023-10-08T14:12:13;24.70;1.00
10304;DHT22;5197;48.152;8.590;2023-10-08T14:14:41;24.70;1.00
10304;DHT22;5197;48.152;8.590;2023-10-08T14:17:11;24.80;1.00
10304;DHT22;5197;48.152;8.590;2023-10-08T14:20:05;24.60;1.00
10304;DHT22;5197;48.152;8.590;2023-10-08T14:22:40;24.60;1.00
10304;DHT22;5197;48.152;8.590;2023-10-08T14:25:08;24.50;1.00
10304;DHT22;5197;48.152;8.590;2023-10-08T14:27:44;24.50;1.00
10304;DHT22;5197;48.152;8.590;2023-10-08T14:30:19;24.50;1.00
10304;DHT22;5197;48.152;8.590;2023-10-08T14:32:48;24.50;1.00
10304;DHT22;5197;48.152;8.590;2023-10-08T14:35:15;24.60;1.00
10304;DHT22;5197;48.152;8.590;2023-10-08T14:38:03;24.60;1.00
10304;DHT22;5197;48.152;8.590;2023-10-08T14:40:48;24.50;1.00
10304;DHT22;5197;48.152;8.590;2023-10-08T14:43:36;24.50;1.00
10304;DHT22;5197;48.152;8.590;2023-10-08T14:46:04;24.40;1.00
10304;DHT22;5197;48.152;8.590;2023-10-08T14:48:33;24.40;1.00
10304;DHT22;5197;48.152;8.590;2023-10-08T14:51:03;24.40;1.00
10304;DHT22;5197;48.152;8.590;2023-10-08T14:53:33;24.30;1.00
10304;DHT22;5197;48.152;8.590;2023-10-08T14:58:31;24.10;1.00
10304;DHT22;5197;48.152;8.590;2023-10-08T15:00:58;24.10;1.00
10304;DHT22;5197;48.152;8.590;2023-10-08T15:03:26;24.10;1.00
10304;DHT22;5197;48.152;8.590;2023-10-08T15:05:54;24.10;1.00
10304;DHT22;5197;48.152;8.590;2023-10-08T15:08:21;24.20;1.00
10304;DHT22;5197;48.152;8.590;2023-10-08T15:10:50;24.60;1.00
10304;DHT22;5197;48.152;8.590;2023-10-08T15:13:17;24.10;1.00
10304;DHT22;5197;48.152;8.590;2023-10-08T15:15:44;24.10;1.00
10304;DHT22;5197;48.152;8.590;2023-10-08T15:18:11;24.10;1.00
10304;DHT22;5197;48.152;8.590;2023-10-08T15:20:39;24.00;1.00
10304;DHT22;5197;48.152;8.590;2023-10-08T15:23:09;23.80;1.00
10304;DHT22;5197;48.152;8.590;2023-10-08T15:25:39;23.70;1.00
10304;DHT22;5197;48.152;8.590;2023-10-08T15:28:06;23.70;1.00
10304;DHT22;5197;48.152;8.590;2023-10-08T15:30:35;23.60;1.00
10304;DHT22;5197;48.152;8.590;2023-10-08T15:33:02;23.50;1.00
10304;DHT22;5197;48.152;8.590;2023-10-08T15:35:29;23.50;1.00
10304;DHT22;5197;48.152;8.590;2023-10-08T15:37:56;23.40;1.00
10304;DHT22;5197;48.152;8.590;2023-10-08T15:40:23;23.40;1.00
10304;DHT22;5197;48.152;8.590;2023-10-08T15:42:52;23.30;1.00
10304;DHT22;5197;48.152;8.590;2023-10-08T15:45:21;23.40;1.00
10304;DHT22;5197;48.152;8.590;2023-10-08T15:47:49;23.20;1.00
10304;DHT22;5197;48.152;8.590;2023-10-08T15:50:20;23.20;1.00
10304;DHT22;5197;48.152;8.590;2023-10-08T15:52:52;23.20;1.00
10304;DHT22;5197;48.152;8.590;2023-10-08T15:55:21;23.10;1.00
10304;DHT22;5197;48.152;8.590;2023-10-08T15:57:50;23.10;1.00
10304;DHT22;5197;48.152;8.590;2023-10-08T16:00:18;23.00;1.00
10304;DHT22;5197;48.152;8.590;2023-10-08T16:02:46;23.00;1.00
10304;DHT22;5197;48.152;8.590;2023-10-08T16:05:14;22.90;1.00
10304;DHT22;5197;48.152;8.590;2023-10-08T16:07:44;22.80;1.00
10304;DHT22;5197;48.152;8.590;2023-10-08T16:10:11;22.80;1.00
10304;DHT22;5197;48.152;8.590;2023-10-08T16:12:38;22.70;1.00
10304;DHT22;5197;48.152;8.590;2023-10-08T16:15:05;22.70;1.00
10304;DHT22;5197;48.152;8.590;2023-10-08T16:17:33;22.70;1.00
10304;DHT22;5197;48.152;8.590;2023-10-08T16:20:01;22.50;1.00
10304;DHT22;5197;48.152;8.590;2023-10-08T16:22:45;22.40;1.00
10304;DHT22;5197;48.152;8.590;2023-10-08T16:25:14;22.30;1.00
10304;DHT22;5197;48.152;8.590;2023-10-08T16:27:45;22.20;1.00
10304;DHT22;5197;48.152;8.590;2023-10-08T16:30:21;21.80;1.00
10304;DHT22;5197;48.152;8.590;2023-10-08T16:32:54;24.20;1.00
10304;DHT22;5197;48.152;8.590;2023-10-08T16:35:23;21.60;1.00
10304;DHT22;5197;48.152;8.590;2023-10-08T16:37:54;21.40;1.00
10304;DHT22;5197;48.152;8.590;2023-10-08T16:40:22;21.20;1.00
10304;DHT22;5197;48.152;8.590;2023-10-08T16:42:50;21.00;1.00
10304;DHT22;5197;48.152;8.590;2023-10-08T16:45:17;20.90;1.00
10304;DHT22;5197;48.152;8.590;2023-10-08T16:47:45;20.80;1.00
10304;DHT22;5197;48.152;8.590;2023-10-08T16:50:13;21.30;1.00